Station: Rockhampton  

  Atmospheric Gas Attenuation - ITU Rec 676-11   ----------------- dB/100km -----------------
Date Time Temp RH % AH g/m3 Dew Point Wind Direction Speed kph Gust kph Barometer mB Rainfall Since 9am 24GHz 47GHz 76GHz 122GHz 134GHz 241GHz
08/05 12:40 23.4 15 3.15 -4.7 20 24 1018.6 0 7.8 16.4 18.2 46.7 30.1 99.6
08/05 12:30 22.9 16 3.27 -4.2 15 22 1018.8 0 8.1 16.6 18.6 47.9 31.4 104.2
08/05 12:20 23.1 16 3.31 -4.1 19 22 1019 0 8.2 16.6 18.7 48.1 31.8 105.4
08/05 12:10 22.4 16 3.18 -4.6 15 19 1019.2 0 7.9 16.6 18.5 47.5 30.8 101.8
08/05 12:00 22.9 17 3.47 -3.4 17 26 1019.4 0 8.5 16.9 19.2 49.5 33.4 111.1
08/05 11:50 22.6 18 3.62 -2.9 15 19 1019.5 0 8.8 17.1 19.7 50.8 35.0 116.6
08/05 11:40 22.3 19 3.75 -2.4 20 22 1019.7 0 9.1 17.3 20.2 52.0 36.4 121.5
08/05 11:30 22.6 18 3.62 -2.9 19 30 1019.8 0 8.8 17.1 19.7 50.8 35.0 116.6
08/05 11:20 21.8 19 3.65 -2.8 22 26 1019.9 0 8.9 17.3 20.0 51.6 35.6 118.8
08/05 11:10 21.3 19 3.54 -3.2 17 20 1020.1 0 8.7 17.3 19.8 51.0 34.7 115.7
08/05 11:00 21.1 20 3.68 -2.7 17 28 1020.3 0 9.0 17.5 20.3 52.3 36.2 120.8
08/05 10:50 20.8 21 3.8 -2.3 17 20 1020.5 0 9.2 17.7 20.7 53.4 37.5 125.5
08/05 10:40 20.7 22 3.96 -1.8 13 15 1020.6 0 9.6 17.9 21.2 54.8 39.2 131.4
08/05 10:30 20.6 22 3.94 -1.8 17 24 1020.9 0 9.5 17.9 21.2 54.7 39.1 130.8
08/05 10:20 20.7 24 4.32 -0.6 13 15 1021.1 0 10.3 18.4 22.4 57.8 42.9 144.3
08/05 10:10 20.3 24 4.22 -0.9 15 17 1021.1 0 10.1 18.3 22.2 57.3 42.1 141.4
08/05 10:00 20.3 24 4.22 -0.9 17 26 1021.1 0 10.1 18.3 22.2 57.3 42.1 141.4
08/05 09:50 19.7 24 4.08 -1.4 15 20 1021.2 0 9.8 18.3 21.9 56.5 40.9 137.3
08/05 09:40 19.7 25 4.24 -0.9 20 20 1021.2 0 10.2 18.5 22.4 57.8 42.6 143.2
08/05 09:30 20.2 26 4.55 0.1 20 28 1021.2 0 10.8 18.8 23.2 60.1 45.5 153.6
08/05 09:20 20.2 26 4.55 0.1 19 22 1021.3 0 10.8 18.8 23.2 60.1 45.5 153.6
08/05 09:10 19 27 4.4 -0.4 22 24 1021.2 0 10.5 18.8 23.1 59.7 44.6 150.3
08/05 09:00 18.9 28 4.54 0 22 26 1021.1 0 10.8 19.0 23.5 60.9 46.2 155.6
08/05 08:50 19.1 29 4.75 0.7 22 28 1021 0 11.3 19.2 24.2 62.6 48.3 163.1
08/05 08:40 18.7 34 5.44 2.5 20 24 1021 0 12.7 20.2 26.5 69.0 56.0 190.3
08/05 08:30 18.1 36 5.56 2.8 22 26 1020.8 0 13.0 20.5 27.1 70.5 57.7 196.3
08/05 08:20 18.2 40 6.22 4.4 20 24 1020.8 0 14.4 21.4 29.3 76.5 65.1 222.3
08/05 08:10 18 41 6.3 4.6 19 20 1020.7 0 14.5 21.6 29.7 77.4 66.2 226.0
08/05 08:00 17.6 41 6.15 4.2 19 24 1020.7 0 14.2 21.5 29.3 76.4 64.8 221.0
08/05 07:50 17.9 42 6.41 4.8 17 19 1020.7 0 14.8 21.8 30.1 78.5 67.5 230.7
08/05 07:40 17.5 42 6.26 4.5 15 19 1020.5 0 14.5 21.6 29.7 77.5 66.1 225.7
08/05 07:30 17.4 43 6.37 4.7 17 20 1020.5 0 14.7 21.8 30.2 78.6 67.5 230.5
08/05 07:20 17.2 46 6.74 5.5 13 15 1020.3 0 15.5 22.4 31.5 82.3 72.0 246.3
08/05 07:10 16.8 48 6.86 5.7 11 13 1020.3 0 15.8 22.7 32.1 83.9 73.8 252.5
08/05 07:00 16.7 49 6.96 5.9 15 20 1020.1 0 16.0 22.8 32.5 84.9 75.1 257.0
08/05 06:50 16.5 49 6.88 5.8 15 17 1019.8 0 15.8 22.7 32.3 84.3 74.3 254.2
08/05 06:40 16.4 49 6.84 5.7 13 15 1019.7 0 15.7 22.7 32.2 84.0 73.9 252.8
08/05 06:30 16.5 49 6.88 5.8 15 20 1019.6 0 15.8 22.7 32.3 84.3 74.3 254.1
08/05 06:20 16.9 47 6.76 5.5 17 19 1019.5 0 15.5 22.5 31.7 82.7 72.4 247.8
08/05 06:10 17.1 47 6.84 5.7 19 22 1019.3 0 15.7 22.5 31.9 83.3 73.2 250.5
08/05 06:00 17.3 47 6.92 5.9 15 24 1019.2 0 15.9 22.6 32.1 83.8 74.0 253.2
08/05 05:50 17.5 46 6.86 5.8 19 22 1019 0 15.7 22.4 31.8 83.0 73.1 250.1
08/05 05:40 17.7 45 6.79 5.6 17 20 1018.9 0 15.6 22.3 31.5 82.2 72.0 246.5
08/05 05:30 17.7 45 6.79 5.6 15 24 1018.7 0 15.6 22.3 31.5 82.1 72.0 246.5
08/05 05:20 17.9 44 6.72 5.5 13 17 1018.5 0 15.4 22.1 31.1 81.3 71.0 243.0
08/05 05:10 17.9 44 6.72 5.5 13 15 1018.2 0 15.4 22.1 31.1 81.2 71.0 242.9
08/05 05:00 18.1 44 6.8 5.7 17 24 1018.3 0 15.6 22.2 31.3 81.8 71.8 245.6
08/05 04:50 18.3 43 6.72 5.5 20 24 1018.3 0 15.4 22.0 31.0 80.8 70.6 241.7
08/05 04:40 18.5 42 6.64 5.4 20 24 1018.1 0 15.2 21.9 30.6 79.9 69.5 237.8
08/05 04:30 18.6 41 6.52 5.1 22 33 1018.1 0 15.0 21.7 30.1 78.7 68.1 232.7
08/05 04:20 18.7 41 6.56 5.2 24 28 1018 0 15.1 21.7 30.2 78.9 68.4 234.0
08/05 04:10 18.7 41 6.56 5.2 15 17 1018 0 15.1 21.7 30.2 78.9 68.4 234.0
08/05 04:00 18.8 41 6.6 5.3 19 28 1017.9 0 15.1 21.7 30.3 79.2 68.8 235.3
08/05 03:50 18.8 41 6.6 5.3 17 17 1017.8 0 15.1 21.7 30.3 79.2 68.8 235.3
08/05 03:40 19 41 6.68 5.5 17 20 1017.8 0 15.3 21.8 30.5 79.7 69.5 237.9
08/05 03:30 19.3 40 6.63 5.4 17 24 1017.7 0 15.2 21.6 30.3 79.0 68.7 235.0
08/05 03:20 19.4 41 6.84 5.8 17 20 1017.6 0 15.6 21.9 30.9 80.8 71.0 243.2
08/05 03:10 19.3 42 6.97 6.1 15 19 1017.5 0 15.9 22.1 31.4 82.1 72.6 248.7
08/05 03:00 19.5 42 7.05 6.3 20 28 1017.4 0 16.1 22.2 31.6 82.7 73.3 251.3
08/05 02:50 19.6 42 7.09 6.3 20 24 1017.3 0 16.1 22.2 31.7 82.9 73.7 252.6
08/05 02:40 19.8 42 7.17 6.5 19 20 1017.3 0 16.3 22.3 31.9 83.5 74.5 255.3
08/05 02:30 20 42 7.26 6.7 19 30 1017.3 0 16.5 22.4 32.2 84.1 75.3 258.3
08/05 02:20 19.9 43 7.39 7 24 30 1017.2 0 16.8 22.6 32.7 85.4 76.9 263.9
08/05 02:10 19.9 44 7.56 7.3 20 22 1017.1 0 17.1 22.8 33.3 87.0 78.9 270.9
08/05 02:00 20 44 7.6 7.4 19 26 1017.1 0 17.2 22.8 33.4 87.3 79.3 272.2
08/05 01:50 20.1 44 7.65 7.5 19 22 1017 0 17.3 22.9 33.5 87.7 79.7 273.9
08/05 01:40 20.3 43 7.56 7.3 19 20 1017 0 17.1 22.7 33.1 86.6 78.5 269.5
08/05 01:30 20.4 43 7.61 7.4 19 26 1017.1 0 17.2 22.8 33.2 87.0 79.0 271.2
08/05 01:20 20.8 42 7.6 7.4 20 20 1017.1 0 17.2 22.6 33.0 86.5 78.5 269.5
08/05 01:10 20.8 42 7.6 7.4 15 19 1017.1 0 17.2 22.6 33.0 86.5 78.5 269.5
08/05 01:00 20.3 44 7.74 7.7 13 19 1017 0 17.5 23.0 33.7 88.3 80.6 276.9
08/05 00:50 19.8 48 8.2 8.5 9 11 1017.1 0 18.5 23.8 35.6 93.3 86.6 297.9
08/05 00:40 19.7 51 8.66 9.3 6 7 1017.2 0 19.4 24.5 37.4 98.0 92.3 317.8
08/05 00:30 19 55 8.96 9.8 6 7 1017.2 0 20.1 25.1 38.8 101.9 96.9 333.7
08/05 00:20 18.5 58 9.18 10.1 6 6 1017.2 0 20.6 25.6 39.9 104.7 100.2 345.5
08/05 00:10 18.7 57 9.13 10 6 7 1017.3 0 20.5 25.5 39.6 104.0 99.4 342.5
08/05 00:00 18.6 58 9.23 10.2 6 9 1017.4 0 20.7 25.7 40.1 105.1 100.8 347.4
07/05 23:50 19 56 9.13 10 7 7 1017.4 0 20.5 25.4 39.5 103.6 99.0 341.2
07/05 23:40 18.6 58 9.23 10.2 0 0 1017.5 0 20.7 25.7 40.1 105.2 100.8 347.4
07/05 23:30 18.9 56 9.07 9.9 0 0 1017.5 0 20.3 25.3 39.3 103.1 98.4 339.0
07/05 23:20 19.3 55 9.12 10 0 0 1017.6 0 20.4 25.3 39.3 103.1 98.5 339.5
07/05 23:10 19.4 54 9.01 9.9 0 0 1017.7 0 20.2 25.1 38.8 101.9 97.0 334.3
07/05 23:00 20.9 49 8.92 9.8 2 6 1017.7 0 19.9 24.6 37.8 99.1 94.1 324.3
07/05 22:50 21.3 48 8.95 9.9 6 6 1017.6 0 20.0 24.5 37.7 98.9 94.0 323.9
07/05 22:40 21.5 47 8.86 9.7 4 6 1017.6 0 19.8 24.3 37.3 97.8 92.7 319.3
07/05 22:30 21.4 46 8.62 9.3 6 9 1017.6 0 19.3 24.0 36.5 95.6 89.9 309.6
07/05 22:20 21.6 45 8.53 9.2 7 7 1017.6 0 19.1 23.8 36.0 94.5 88.6 305.1
07/05 22:10 21.7 45 8.58 9.3 11 13 1017.7 0 19.2 23.8 36.2 94.8 89.1 306.8
07/05 22:00 21.9 44 8.49 9.1 11 17 1017.6 0 19.0 23.7 35.8 93.7 87.8 302.3
07/05 21:50 21.7 45 8.58 9.3 9 11 1017.6 0 19.2 23.8 36.2 94.8 89.1 306.8
07/05 21:40 21.7 45 8.58 9.3 11 13 1017.5 0 19.2 23.8 36.2 94.8 89.1 306.8
07/05 21:30 21.8 46 8.82 9.7 11 13 1017.5 0 19.7 24.2 37.0 97.0 91.8 316.4
07/05 21:20 22 46 8.93 9.9 11 13 1017.5 0 19.9 24.3 37.3 97.9 92.9 320.3
07/05 21:10 21.9 47 9.07 10.1 15 17 1017.5 0 20.2 24.5 37.9 99.3 94.7 326.6
07/05 21:00 22.5 44 8.79 9.6 11 15 1017.5 0 19.6 23.9 36.6 95.9 90.7 312.5
07/05 20:50 23.6 42 8.93 9.9 11 15 1017.5 0 19.8 23.9 36.6 95.9 91.1 314.0
07/05 20:40 23.6 42 8.93 9.9 13 17 1017.3 0 19.8 23.8 36.6 95.9 91.1 313.9
07/05 20:30 23.3 45 9.41 10.7 9 13 1017.3 0 20.8 24.6 38.4 100.9 97.1 335.1
07/05 20:20 23.5 44 9.3 10.6 9 11 1017.2 0 20.6 24.4 37.9 99.6 95.5 329.6
07/05 20:10 23.7 43 9.2 10.4 9 11 1017.2 0 20.4 24.2 37.5 98.4 94.1 324.7

Last Refresh: 08-May-2026 12:10:11

Bureau of Meteorology